WetterOnline ( https://www.wetteronline.de )

Wetter aktuell Straubing

Aktuelles Wetter: Straubing (360m)

6-stündlich | Neueste Meldungen
Ortszeit Temperatur Wetter
Mo, 27.09. 14:00 19.9° C bewölkt
Mo, 27.09. 8:00 15.0° C Regen
Mo, 27.09. 2:00 17.5° C bedeckt
So, 26.09. 20:00 18.7° C bewölkt
So, 26.09. 14:00 22.9° C bedeckt
So, 26.09. 8:00 12.0° C leicht bewölkt
So, 26.09. 2:00 12.6° C bedeckt
Sa, 25.09. 20:00 16.7° C wolkenlos
Ortszeit Temperatur Wetter
Mo, 27.09. 16:30 21.2° C fast wolkenlos
Mo, 27.09. 16:20 21.2° C fast wolkenlos
Mo, 27.09. 16:10 21.5° C fast wolkenlos
Mo, 27.09. 16:00 21.2° C wolkenlos
Mo, 27.09. 15:50 21.2° C wolkenlos
Mo, 27.09. 15:40 21.4° C wolkenlos
Mo, 27.09. 15:30 21.2° C wolkenlos
Mo, 27.09. 15:00 21.0° C leicht bewölkt
Mo, 27.09. 14:30 20.5° C fast wolkenlos
Mo, 27.09. 14:00 19.9° C bewölkt
Mo, 27.09. 13:30 19.9° C wolkig
Ortszeit Relative Feuchte Sichtweite
Mo, 27.09. 14:00 68% 29 km
Mo, 27.09. 8:00 93% 20 km
Mo, 27.09. 2:00 79% 30 km
So, 26.09. 20:00 71% 50 km
So, 26.09. 14:00 58% 30 km
So, 26.09. 8:00 92% 12 km
So, 26.09. 2:00 90% 21 km
Sa, 25.09. 20:00 75% 40 km
Ortszeit Relative Feuchte Sichtweite
Mo, 27.09. 16:30 58% 45 km
Mo, 27.09. 16:20 58% -
Mo, 27.09. 16:10 56% -
Mo, 27.09. 16:00 58% 35 km
Mo, 27.09. 15:50 58% -
Mo, 27.09. 15:40 59% -
Mo, 27.09. 15:30 60% 35 km
Mo, 27.09. 15:00 63% 30 km
Mo, 27.09. 14:30 64% 27 km
Mo, 27.09. 14:00 68% 29 km
Mo, 27.09. 13:30 72% 20 km
Ortszeit Niederschlagsmenge Niederschlagsart
Mo, 27.09. 14:00 0.1 l/m2 in 6 Std. Regen
Mo, 27.09. 8:00 4 l/m2 in 12 Std. Regen
Mo, 27.09. 2:00 0.0 l/m2 in 6 Std. -
So, 26.09. 20:00 0.0 l/m2 in 12 Std. -
So, 26.09. 14:00 0.0 l/m2 in 6 Std. -
So, 26.09. 8:00 0.0 l/m2 in 12 Std. -
So, 26.09. 2:00 0.0 l/m2 in 6 Std. -
Sa, 25.09. 20:00 0.1 l/m2 in 12 Std. -
Ortszeit Niederschlagsmenge Niederschlagsart
Mo, 27.09. 16:30 0.0 l/m2 in 1 Std. -
Mo, 27.09. 16:20 keine Meldung -
Mo, 27.09. 16:10 keine Meldung -
Mo, 27.09. 16:00 0.0 l/m2 in 1 Std. -
Mo, 27.09. 15:50 keine Meldung -
Mo, 27.09. 15:40 keine Meldung -
Mo, 27.09. 15:30 0.0 l/m2 in 1 Std. -
Mo, 27.09. 15:00 0.0 l/m2 in 1 Std. -
Mo, 27.09. 14:30 0.0 l/m2 in 1 Std. -
Mo, 27.09. 14:00 0.0 l/m2 in 1 Std. Regen
Mo, 27.09. 13:30 0.0 l/m2 in 1 Std. -
Ortszeit Stärke Spitze Richtung
km/h Bft. km/h Grad Sektor
Mo, 27.09. 14:00 7 2 17 250° W
Mo, 27.09. 8:00 7 2 29 250° W
Mo, 27.09. 2:00 11 2 22 270° W
So, 26.09. 20:00 4 1 18 260° W
So, 26.09. 14:00 9 2 19 110° O
So, 26.09. 8:00 6 1 11 100° O
So, 26.09. 2:00 4 1 7 230° SW
Sa, 25.09. 20:00 4 1 18 180° S
Ortszeit Stärke Spitze Richtung
km/h Bft. km/h Grad Sektor
Mo, 27.09. 16:30 11 2 14 240° SW
Mo, 27.09. 16:20 11 2 - 240° SW
Mo, 27.09. 16:10 7 2 - 250° W
Mo, 27.09. 16:00 7 2 18 260° W
Mo, 27.09. 15:50 7 2 - 260° W
Mo, 27.09. 15:40 7 2 - 260° W
Mo, 27.09. 15:30 7 2 18 230° SW
Mo, 27.09. 15:00 11 2 18 250° W
Mo, 27.09. 14:30 9 2 17 270° W
Mo, 27.09. 14:00 7 2 17 250° W
Mo, 27.09. 13:30 7 2 14 330° NW
Ortszeit Untergrenze Bedeckung Gattung
total tief tief mittel hoch
Mo, 27.09. 14:00 510 m 7/8 7/8 - - -
Mo, 27.09. 8:00 2400 m 8/8 8/8 - - -
Mo, 27.09. 2:00 900 m 8/8 8/8 - - -
So, 26.09. 20:00 2700 m 8/8 4/8 - - -
So, 26.09. 14:00 3300 m 8/8 8/8 - - -
So, 26.09. 8:00 2700 m 3/8 1/8 - - -
So, 26.09. 2:00 3900 m 8/8 8/8 - - -
Sa, 25.09. 20:00 - 0/8 0/8 - - -
Ortszeit Bedeckungsgrad in Achtel und Wolkenuntergrenze
Mo, 27.09. 16:30 1(990m)
Mo, 27.09. 16:20 1(990m)
Mo, 27.09. 16:10 1(1200m)
Mo, 27.09. 16:00 keine Wolken
Mo, 27.09. 15:50 keine Wolken
Mo, 27.09. 15:40 keine Wolken
Mo, 27.09. 15:30 keine Wolken
Mo, 27.09. 15:00 3(690m)
Mo, 27.09. 14:30 1(960m)
Mo, 27.09. 14:00 4(510m) 7(690m) 7(900m)
Mo, 27.09. 13:30 2(510m) 3(660m) 5(1500m)
Ortszeit Luftdruck NN (hPa) Tendenz (hPa in 3 Std.)
Mo, 27.09. 14:00 1018 - 0,4
Mo, 27.09. 8:00 1019 + 0,3
Mo, 27.09. 2:00 1018 + 1,3
So, 26.09. 20:00 1016 - 0,3
So, 26.09. 14:00 1017 - 0,6
So, 26.09. 8:00 1019 - 0,1
So, 26.09. 2:00 1019 + 0,6
Sa, 25.09. 20:00 1017 - 0,2
Ortszeit Luftdruck NN (hPa) Tendenz (hPa in 3 Std.)
Mo, 27.09. 16:30 1017 - 0,5
Mo, 27.09. 16:20 1017 keine Meldung
Mo, 27.09. 16:10 1017 keine Meldung
Mo, 27.09. 16:00 1017 - 0,6
Mo, 27.09. 15:50 1017 keine Meldung
Mo, 27.09. 15:40 1017 keine Meldung
Mo, 27.09. 15:30 1017 - 0,6
Mo, 27.09. 15:00 1018 - 0,5
Mo, 27.09. 14:30 1018 - 0,5
Mo, 27.09. 14:00 1018 - 0,4
Mo, 27.09. 13:30 1018 - 0,3
Ortszeit Schneehöhe (cm)
Mo, 27.09. 14:00 -
Mo, 27.09. 8:00 -
Mo, 27.09. 2:00 -
So, 26.09. 20:00 -
So, 26.09. 14:00 -
So, 26.09. 8:00 -
So, 26.09. 2:00 -
Sa, 25.09. 20:00 -
Ortszeit Schneehöhe (cm)
Mo, 27.09. 16:30 -
Mo, 27.09. 16:20 -
Mo, 27.09. 16:10 -
Mo, 27.09. 16:00 -
Mo, 27.09. 15:50 -
Mo, 27.09. 15:40 -
Mo, 27.09. 15:30 -
Mo, 27.09. 15:00 -
Mo, 27.09. 14:30 -
Mo, 27.09. 14:00 -
Mo, 27.09. 13:30 -
Link zu dieser Seite / Seite empfehlen

Das Wetter in ...